Time;durP1;ratioP1;P1;durP2;ratioP2;P2;SDS_P1;SDS_P2;PMS_P1;PMS_P2;Temp;Humidity;BMP_temperature;BMP_pressure;BME280_temperature;BME280_humidity;BME280_pressure;Samples;Min_cycle;Max_cycle;Signal;HPM_P1;HPM_P2
2022/03/02 00:01:42;;;;;;;16.63;10.10;;;;;;;6.75;44.56;101558.53;5138053;27;20209;-64
2022/03/02 00:04:10;;;;;;;17.73;9.50;;;;;;;6.77;44.49;101561.91;5144932;27;20215;-63
2022/03/02 00:06:39;;;;;;;17.63;9.60;;;;;;;6.68;44.70;101563.34;5135442;27;20374;-63
2022/03/02 00:09:07;;;;;;;20.80;9.83;;;;;;;6.68;44.45;101563.34;5121409;27;20392;-64
2022/03/02 00:11:35;;;;;;;20.30;10.07;;;;;;;6.61;45.06;101563.81;5118207;27;20226;-64
2022/03/02 00:14:05;;;;;;;15.93;9.63;;;;;;;6.65;44.82;101562.69;5117001;27;20233;-63
2022/03/02 00:16:33;;;;;;;20.37;9.30;;;;;;;6.64;45.09;101560.97;5125897;27;20728;-64
2022/03/02 00:19:02;;;;;;;17.90;9.53;;;;;;;6.60;45.04;101546.28;5116526;27;20216;-64
2022/03/02 00:21:29;;;;;;;16.17;9.37;;;;;;;6.62;44.83;101547.91;5114070;27;20206;-64
2022/03/02 00:24:03;;;;;;;17.53;9.57;;;;;;;6.53;45.05;101548.47;5121006;27;20337;-63
2022/03/02 00:26:31;;;;;;;18.47;9.70;;;;;;;6.53;45.01;101539.72;5116429;27;20271;-64
2022/03/02 00:28:59;;;;;;;16.57;9.50;;;;;;;6.49;44.85;101540.88;5115396;27;20213;-64
2022/03/02 00:31:29;;;;;;;17.27;10.20;;;;;;;6.45;45.17;101537.56;5117758;27;20233;-63
2022/03/02 00:33:58;;;;;;;18.23;9.50;;;;;;;6.41;44.86;101534.28;5117035;27;20309;-64
2022/03/02 00:36:25;;;;;;;17.77;10.17;;;;;;;6.42;44.78;101529.84;5113763;27;20313;-63
2022/03/02 00:38:53;;;;;;;17.57;9.00;;;;;;;6.27;45.24;101533.44;5119324;27;20211;-64
2022/03/02 00:41:28;;;;;;;15.53;9.50;;;;;;;6.39;45.24;101535.31;5116441;27;20233;-64
2022/03/02 00:43:57;;;;;;;19.43;9.33;;;;;;;6.32;45.08;101523.47;5117727;27;20714;-63
2022/03/02 00:46:29;;;;;;;18.67;9.10;;;;;;;6.39;45.00;101527.41;5118966;27;20304;-64
2022/03/02 00:49:05;;;;;;;19.20;9.70;;;;;;;6.38;44.77;101523.94;5117731;27;20488;-64
2022/03/02 00:51:34;;;;;;;15.00;9.20;;;;;;;6.39;44.83;101528.28;5120352;27;20218;-64
2022/03/02 00:54:02;;;;;;;15.33;8.50;;;;;;;6.37;45.00;101522.25;5115374;27;20347;-65
2022/03/02 00:56:35;;;;;;;17.80;9.47;;;;;;;6.30;45.21;101528.84;5117488;27;20297;-65
2022/03/02 00:59:06;;;;;;;16.80;10.30;;;;;;;6.37;45.26;101526.66;5116783;27;20209;-63
2022/03/02 01:01:34;;;;;;;18.13;8.83;;;;;;;6.16;45.46;101523.56;5118639;27;20198;-64
2022/03/02 01:04:02;;;;;;;17.53;9.37;;;;;;;6.33;45.07;101504.91;5119830;27;20209;-64
2022/03/02 01:06:32;;;;;;;15.23;8.93;;;;;;;6.27;45.28;101507.09;5116831;27;20352;-62
2022/03/02 01:09:00;;;;;;;18.30;9.53;;;;;;;6.14;45.29;101504.38;5136391;27;20201;-64
2022/03/02 01:11:28;;;;;;;18.30;9.77;;;;;;;6.29;45.29;101503.44;5138118;27;20323;-63
2022/03/02 01:13:57;;;;;;;15.63;9.47;;;;;;;6.24;45.34;101497.63;5134934;27;20215;-63
2022/03/02 01:16:25;;;;;;;18.63;9.50;;;;;;;6.19;45.12;101497.03;5141711;27;20236;-64
2022/03/02 01:18:53;;;;;;;17.07;9.53;;;;;;;6.26;44.97;101502.75;5136470;27;20611;-64
2022/03/02 01:21:21;;;;;;;16.43;9.13;;;;;;;6.34;44.96;101503.97;5139073;27;20200;-63
2022/03/02 01:23:48;;;;;;;20.57;10.37;;;;;;;6.26;45.18;101498.34;5135246;27;20209;-64
2022/03/02 01:26:19;;;;;;;23.83;10.77;;;;;;;6.22;45.02;101491.59;5145173;27;20294;-63
2022/03/02 01:28:47;;;;;;;18.53;9.57;;;;;;;6.22;44.88;101499.50;5144632;27;20592;-64
2022/03/02 01:31:21;;;;;;;17.63;9.87;;;;;;;6.02;45.57;101494.59;5137736;27;20232;-64
2022/03/02 01:33:52;;;;;;;17.63;9.70;;;;;;;6.12;45.21;101495.72;5135043;27;20251;-62
2022/03/02 01:36:25;;;;;;;19.07;9.57;;;;;;;6.20;44.96;101492.63;5133566;27;20718;-64
2022/03/02 01:38:59;;;;;;;22.60;8.87;;;;;;;6.18;44.85;101492.72;5136903;27;20245;-63
2022/03/02 01:41:30;;;;;;;18.27;9.17;;;;;;;6.03;45.31;101491.03;5137026;27;20696;-63
2022/03/02 01:44:02;;;;;;;17.47;9.00;;;;;;;6.17;44.53;101488.38;5141371;27;20268;-63
2022/03/02 01:46:31;;;;;;;17.30;8.97;;;;;;;6.04;44.98;101477.78;5136716;27;20197;-62
2022/03/02 01:49:09;;;;;;;;;;;;;;;;;;;;;
2022/03/02 01:51:37;;;;;;;14.73;8.80;;;;;;;5.94;45.02;101476.66;5141595;27;20323;-63
2022/03/02 01:54:06;;;;;;;17.03;8.80;;;;;;;5.82;45.82;101465.97;5140690;27;20356;-63
2022/03/02 01:56:35;;;;;;;20.80;8.83;;;;;;;5.75;45.65;101469.91;5137607;27;20327;-63
2022/03/02 01:59:10;;;;;;;15.73;8.43;;;;;;;5.92;45.30;101468.00;5135706;27;20218;-64
2022/03/02 02:01:42;;;;;;;14.73;8.37;;;;;;;5.91;45.32;101460.19;5138501;27;20682;-62
2022/03/02 02:04:13;;;;;;;17.53;8.80;;;;;;;5.88;45.60;101463.88;5136468;27;20284;-63
2022/03/02 02:06:41;;;;;;;17.07;8.53;;;;;;;5.99;45.19;101461.41;5138826;27;20201;-64
2022/03/02 02:09:12;;;;;;;17.33;8.90;;;;;;;5.90;45.09;101453.22;5136417;27;20299;-63
2022/03/02 02:11:40;;;;;;;19.83;8.37;;;;;;;5.77;45.52;101449.63;5132979;27;20417;-63
2022/03/02 02:14:10;;;;;;;15.87;8.77;;;;;;;5.82;45.40;101444.91;5132039;27;20257;-64
2022/03/02 02:16:38;;;;;;;15.93;8.10;;;;;;;5.78;45.63;101443.44;5134597;27;20294;-64
2022/03/02 02:19:07;;;;;;;17.87;8.60;;;;;;;5.80;45.56;101442.41;5132404;27;20299;-64
2022/03/02 02:21:37;;;;;;;14.50;8.40;;;;;;;5.71;45.96;101439.47;5136073;27;20206;-65
2022/03/02 02:24:05;;;;;;;17.87;8.53;;;;;;;5.72;45.80;101436.72;5136793;27;20268;-64
2022/03/02 02:26:36;;;;;;;14.93;8.93;;;;;;;5.74;45.48;101426.13;5137765;27;20754;-64
2022/03/02 02:29:26;;;;;;;14.60;7.77;;;;;;;5.77;45.44;101431.19;5136800;27;20216;-64
2022/03/02 02:31:54;;;;;;;16.40;8.50;;;;;;;5.69;45.68;101423.78;5136933;27;20287;-64
2022/03/02 02:34:24;;;;;;;16.00;8.83;;;;;;;5.64;45.94;101426.69;5133093;27;20209;-63
2022/03/02 02:36:54;;;;;;;17.87;9.20;;;;;;;5.57;46.17;101432.41;5138418;27;20219;-63
2022/03/02 02:39:25;;;;;;;12.77;7.90;;;;;;;5.52;46.07;101427.44;5142906;27;20219;-63
2022/03/02 02:41:52;;;;;;;16.77;8.67;;;;;;;5.45;46.33;101431.38;5139339;27;20674;-64
2022/03/02 02:44:21;;;;;;;20.40;9.03;;;;;;;5.65;46.21;101423.09;5143018;27;20673;-63
2022/03/02 02:46:48;;;;;;;18.17;8.93;;;;;;;5.59;46.64;101434.00;5137381;27;20205;-63
2022/03/02 02:49:19;;;;;;;17.07;9.30;;;;;;;5.70;46.10;101428.09;5138098;27;20288;-62
2022/03/02 02:51:47;;;;;;;14.10;8.50;;;;;;;5.67;45.84;101421.25;5137018;27;20320;-62
2022/03/02 02:54:16;;;;;;;17.20;8.87;;;;;;;5.59;46.26;101418.22;5137568;27;20208;-62
2022/03/02 02:56:44;;;;;;;15.73;8.60;;;;;;;5.55;46.48;101427.22;5138632;27;20212;-65
2022/03/02 02:59:11;;;;;;;17.37;8.83;;;;;;;5.58;46.26;101431.47;5141239;27;20648;-62
2022/03/02 03:01:39;;;;;;;15.40;8.47;;;;;;;5.56;46.64;101434.19;5142205;27;20228;-63
2022/03/02 03:04:08;;;;;;;16.10;9.13;;;;;;;5.57;46.54;101430.63;5139037;27;20630;-63
2022/03/02 03:06:37;;;;;;;15.07;9.00;;;;;;;5.67;46.14;101418.59;5139820;27;20584;-64
2022/03/02 03:09:05;;;;;;;18.97;9.07;;;;;;;5.66;46.05;101409.00;5143050;27;20207;-64
2022/03/02 03:11:39;;;;;;;19.63;9.50;;;;;;;5.73;46.07;101408.63;5140935;27;20294;-63
2022/03/02 03:14:14;;;;;;;18.67;9.20;;;;;;;5.63;46.48;101403.94;5139347;27;20853;-63
2022/03/02 03:16:45;;;;;;;18.30;9.73;;;;;;;5.65;46.23;101396.78;5144560;27;20207;-63
2022/03/02 03:19:13;;;;;;;18.97;9.77;;;;;;;5.74;46.11;101389.28;5136284;27;20285;-63
2022/03/02 03:21:41;;;;;;;14.97;8.60;;;;;;;5.55;46.44;101394.81;5139121;27;20591;-63
2022/03/02 03:24:11;;;;;;;14.67;8.43;;;;;;;5.63;46.38;101382.03;5138094;27;20212;-63
2022/03/02 03:26:44;;;;;;;18.63;9.23;;;;;;;5.54;46.67;101388.69;5143889;27;20219;-62
2022/03/02 03:29:11;;;;;;;22.50;9.50;;;;;;;5.44;46.99;101392.00;5142110;27;20212;-62
2022/03/02 03:31:41;;;;;;;18.10;9.17;;;;;;;5.53;46.75;101392.31;5142066;27;20306;-63
2022/03/02 03:34:09;;;;;;;14.73;8.90;;;;;;;5.53;46.54;101391.44;5139481;27;20594;-63
2022/03/02 03:36:41;;;;;;;17.13;9.00;;;;;;;5.49;46.65;101396.03;5146492;27;20211;-63
2022/03/02 03:39:09;;;;;;;18.13;8.67;;;;;;;5.38;47.07;101398.47;5137591;27;20210;-63
2022/03/02 03:41:37;;;;;;;13.57;8.80;;;;;;;5.34;47.44;101407.50;5140082;27;20218;-63
2022/03/02 03:44:06;;;;;;;15.60;9.23;;;;;;;5.37;47.62;101398.56;5138264;27;20248;-62
2022/03/02 03:46:36;;;;;;;18.90;9.50;;;;;;;5.24;47.60;101395.84;5142040;27;20217;-64
2022/03/02 03:49:04;;;;;;;17.47;9.63;;;;;;;5.42;47.23;101404.41;5135489;27;20223;-63
2022/03/02 03:51:34;;;;;;;17.40;9.50;;;;;;;5.35;47.40;101401.31;5142346;27;20320;-63
2022/03/02 03:54:04;;;;;;;20.50;9.63;;;;;;;5.31;47.47;101394.53;5138743;27;20231;-64
2022/03/02 03:56:31;;;;;;;16.63;9.63;;;;;;;5.33;47.11;101383.91;5139704;27;20216;-64
2022/03/02 03:58:59;;;;;;;17.07;9.17;;;;;;;5.34;47.39;101385.59;5141782;27;20268;-63
2022/03/02 04:01:28;;;;;;;17.43;9.57;;;;;;;5.18;47.72;101381.28;5135924;27;20228;-64
2022/03/02 04:03:58;;;;;;;18.93;10.07;;;;;;;5.32;47.26;101372.53;5138158;27;20220;-63
2022/03/02 04:06:30;;;;;;;15.70;9.00;;;;;;;5.26;47.57;101381.66;5135980;27;20620;-63
2022/03/02 04:09:00;;;;;;;16.67;9.53;;;;;;;5.27;47.73;101377.25;5135838;27;20468;-62
2022/03/02 04:11:28;;;;;;;20.37;9.23;;;;;;;5.18;47.86;101383.06;5138446;27;20244;-64
2022/03/02 04:13:58;;;;;;;17.43;8.87;;;;;;;5.14;47.75;101381.53;5136857;27;20228;-63
2022/03/02 04:16:39;;;;;;;20.67;9.77;;;;;;;5.17;47.50;101378.72;5132063;27;20339;-63
2022/03/02 04:19:07;;;;;;;15.70;9.60;;;;;;;5.13;47.71;101378.06;5135043;27;20394;-63
2022/03/02 04:21:35;;;;;;;17.40;8.40;;;;;;;5.16;47.79;101371.78;5139116;27;20359;-64
2022/03/02 04:24:02;;;;;;;19.07;9.83;;;;;;;5.12;47.82;101359.75;5136129;27;20212;-63
2022/03/02 04:26:33;;;;;;;17.67;9.57;;;;;;;5.20;47.39;101362.75;5135890;27;20235;-63
2022/03/02 04:29:01;;;;;;;18.60;9.93;;;;;;;5.16;47.77;101356.84;5138745;27;20742;-64
2022/03/02 04:31:32;;;;;;;16.63;9.23;;;;;;;5.24;47.60;101349.34;5137626;27;20215;-63
2022/03/02 04:34:04;;;;;;;13.33;8.40;;;;;;;5.28;47.26;101347.34;5136967;27;20293;-64
2022/03/02 04:36:36;;;;;;;20.33;9.03;;;;;;;5.19;47.38;101338.25;5139906;27;20591;-64
2022/03/02 04:39:04;;;;;;;17.27;9.80;;;;;;;5.21;47.40;101343.41;5135805;27;20209;-64
2022/03/02 04:41:32;;;;;;;19.27;9.60;;;;;;;5.19;47.67;101340.88;5134870;27;20235;-63
2022/03/02 04:44:01;;;;;;;21.27;9.70;;;;;;;5.06;47.65;101339.09;5137348;27;20347;-64
2022/03/02 04:46:29;;;;;;;17.43;9.40;;;;;;;4.99;47.87;101335.97;5137353;27;20221;-63
2022/03/02 04:48:57;;;;;;;17.97;9.43;;;;;;;5.05;47.77;101345.28;5140126;27;20215;-64
2022/03/02 04:51:26;;;;;;;19.83;10.10;;;;;;;5.20;47.63;101331.19;5139712;27;20207;-63
2022/03/02 04:53:55;;;;;;;18.03;9.83;;;;;;;5.16;47.53;101341.06;5131390;27;20225;-63
2022/03/02 04:56:22;;;;;;;15.43;9.40;;;;;;;5.20;47.31;101339.94;5139596;27;20219;-64
2022/03/02 04:58:56;;;;;;;17.70;9.73;;;;;;;5.02;47.74;101348.06;5139339;27;20247;-63
2022/03/02 05:01:24;;;;;;;20.83;9.43;;;;;;;4.99;48.04;101337.75;5138593;27;20235;-64
2022/03/02 05:03:51;;;;;;;17.27;10.43;;;;;;;4.98;48.41;101346.56;5139435;27;20208;-64
2022/03/02 05:06:19;;;;;;;19.87;10.90;;;;;;;5.09;48.06;101338.91;5138342;27;20712;-63
2022/03/02 05:08:52;;;;;;;20.40;10.37;;;;;;;5.11;48.37;101342.25;5135455;27;20322;-63
2022/03/02 05:11:20;;;;;;;18.23;10.43;;;;;;;5.09;48.20;101328.41;5137031;27;20204;-64
2022/03/02 05:13:48;;;;;;;20.17;9.80;;;;;;;4.99;48.22;101328.09;5135636;27;20723;-64
2022/03/02 05:16:18;;;;;;;16.63;9.40;;;;;;;5.04;48.34;101327.81;5131015;27;20571;-64
2022/03/02 05:18:48;;;;;;;18.93;10.00;;;;;;;5.20;47.92;101328.56;5142484;27;20216;-64
2022/03/02 05:21:16;;;;;;;19.33;9.67;;;;;;;5.11;48.07;101326.50;5140954;27;20601;-64
2022/03/02 05:23:43;;;;;;;16.97;9.73;;;;;;;5.19;48.06;101332.97;5135007;27;20287;-64
2022/03/02 05:26:12;;;;;;;21.63;9.40;;;;;;;5.14;48.11;101326.31;5135293;27;20324;-63
2022/03/02 05:28:40;;;;;;;17.50;8.30;;;;;;;5.11;48.15;101324.72;5139340;27;20299;-63
2022/03/02 05:31:08;;;;;;;17.57;9.17;;;;;;;5.09;48.09;101331.88;5135213;27;20216;-65
2022/03/02 05:33:36;;;;;;;17.03;9.63;;;;;;;4.98;48.32;101336.91;5138904;27;20225;-64
2022/03/02 05:36:04;;;;;;;16.37;9.67;;;;;;;5.18;47.92;101338.34;5136883;27;20241;-64
2022/03/02 05:38:32;;;;;;;17.37;9.77;;;;;;;5.12;47.84;101333.44;5140077;27;20218;-64
2022/03/02 05:41:00;;;;;;;21.47;10.10;;;;;;;5.11;48.09;101334.38;5137029;27;20624;-64
2022/03/02 05:43:29;;;;;;;16.07;9.63;;;;;;;5.06;48.26;101339.94;5139007;27;20243;-64
2022/03/02 05:45:57;;;;;;;19.97;9.60;;;;;;;5.15;47.92;101352.53;5137049;27;20256;-64
2022/03/02 05:48:25;;;;;;;24.23;10.40;;;;;;;5.14;47.68;101342.94;5141927;27;20215;-65
2022/03/02 05:50:52;;;;;;;21.07;11.17;;;;;;;5.26;47.72;101341.38;5139323;27;20724;-64
2022/03/02 05:53:20;;;;;;;19.33;10.13;;;;;;;5.21;47.54;101338.16;5139672;27;20209;-64
2022/03/02 05:55:48;;;;;;;18.40;10.40;;;;;;;5.20;47.81;101336.47;5135201;27;20222;-64
2022/03/02 05:58:16;;;;;;;18.57;9.50;;;;;;;4.98;48.36;101338.69;5142802;27;20673;-64
2022/03/02 06:00:46;;;;;;;18.27;9.47;;;;;;;5.00;48.67;101342.09;5134824;27;20284;-64
2022/03/02 06:03:15;;;;;;;15.97;8.63;;;;;;;5.20;48.16;101342.56;5146758;27;20448;-63
2022/03/02 06:05:43;;;;;;;16.93;9.40;;;;;;;5.19;48.23;101340.88;5141454;27;20219;-64
2022/03/02 06:08:14;;;;;;;16.10;9.63;;;;;;;4.54;49.96;101339.53;5125003;27;20246;-64
2022/03/02 06:10:43;;;;;;;19.07;9.70;;;;;;;5.12;48.58;101349.22;5118442;27;20306;-65
2022/03/02 06:13:11;;;;;;;16.47;9.87;;;;;;;5.11;48.40;101358.03;5126194;27;20211;-64
2022/03/02 06:15:39;;;;;;;18.90;9.93;;;;;;;5.26;48.31;101357.16;5121426;27;20258;-64
2022/03/02 06:18:09;;;;;;;17.47;9.90;;;;;;;5.27;48.29;101357.06;5125006;27;20470;-64
2022/03/02 06:20:37;;;;;;;17.03;10.00;;;;;;;5.13;48.82;101353.53;5120323;27;20209;-63
2022/03/02 06:23:05;;;;;;;26.73;9.47;;;;;;;5.21;48.71;101364.44;5120642;27;20647;-63
2022/03/02 06:25:39;;;;;;;18.90;10.03;;;;;;;5.21;48.71;101365.28;5126653;27;20249;-65
2022/03/02 06:28:07;;;;;;;18.23;9.50;;;;;;;5.25;48.57;101361.56;5127678;27;20240;-63
2022/03/02 06:30:35;;;;;;;17.17;9.50;;;;;;;5.29;48.55;101362.19;5123516;27;20644;-64
2022/03/02 06:33:02;;;;;;;17.83;9.93;;;;;;;5.28;48.79;101361.34;5125881;27;20229;-64
2022/03/02 06:35:37;;;;;;;21.20;9.50;;;;;;;5.39;48.46;101359.84;5117649;27;20973;-63
2022/03/02 06:38:04;;;;;;;23.37;11.47;;;;;;;5.28;48.98;101350.84;5119545;27;20743;-64
2022/03/02 06:40:33;;;;;;;18.93;10.47;;;;;;;5.47;48.41;101357.59;5125316;27;20574;-65
2022/03/02 06:43:06;;;;;;;20.07;10.40;;;;;;;5.42;48.68;101351.78;5120605;27;20302;-64
2022/03/02 06:45:48;;;;;;;18.87;9.77;;;;;;;5.47;48.43;101361.09;5127420;27;20201;-65
2022/03/02 06:48:20;;;;;;;24.67;10.10;;;;;;;5.49;48.69;101359.22;5127290;27;20197;-64
2022/03/02 06:50:53;;;;;;;17.53;9.17;;;;;;;5.46;48.67;101363.81;5121670;27;20261;-62
2022/03/02 06:53:30;;;;;;;16.43;9.17;;;;;;;5.47;48.37;101353.19;5118807;27;20296;-64
2022/03/02 06:56:00;;;;;;;23.40;9.07;;;;;;;5.53;48.36;101358.09;5123046;27;20269;-64
2022/03/02 06:58:35;;;;;;;18.13;9.27;;;;;;;5.42;48.96;101357.91;5123499;27;20922;-64
2022/03/02 07:01:04;;;;;;;19.77;9.67;;;;;;;5.44;48.66;101355.19;5122765;27;20209;-63
2022/03/02 07:03:41;;;;;;;15.90;9.17;;;;;;;5.59;48.55;101355.09;5123122;27;20237;-63
2022/03/02 07:06:12;;;;;;;17.70;9.93;;;;;;;5.62;48.50;101352.28;5122558;27;20224;-63
2022/03/02 07:08:55;;;;;;;;;;;;;;;;;;;;;
2022/03/02 07:11:26;;;;;;;18.80;9.60;;;;;;;5.76;48.22;101346.13;5124644;27;20213;-64
2022/03/02 07:14:00;;;;;;;18.07;9.87;;;;;;;5.80;47.85;101350.28;5130638;27;20208;-65
2022/03/02 07:16:29;;;;;;;16.47;8.67;;;;;;;5.84;47.91;101357.03;5116590;27;20226;-63
2022/03/02 07:18:57;;;;;;;19.43;8.80;;;;;;;5.78;48.00;101352.16;5116963;27;20213;-64
2022/03/02 07:21:29;;;;;;;16.80;9.30;;;;;;;5.64;48.11;101357.41;5121204;27;20237;-63
2022/03/02 07:24:06;;;;;;;17.60;8.97;;;;;;;5.72;47.49;101346.44;5121681;27;20214;-63
2022/03/02 07:26:35;;;;;;;16.77;9.07;;;;;;;5.78;47.57;101348.69;5127360;27;20281;-64
2022/03/02 07:29:08;;;;;;;16.37;9.20;;;;;;;5.90;47.25;101342.66;5117258;27;20616;-64
2022/03/02 07:31:36;;;;;;;16.50;8.27;;;;;;;5.80;47.88;101344.16;5114967;27;20216;-64
2022/03/02 07:34:14;;;;;;;18.87;9.33;;;;;;;5.97;47.59;101354.50;5121495;27;20613;-64
2022/03/02 07:36:44;;;;;;;17.57;9.03;;;;;;;5.94;47.47;101354.69;5118537;27;20341;-64
2022/03/02 07:39:12;;;;;;;18.10;9.53;;;;;;;6.01;47.38;101356.00;5120015;27;20670;-65
2022/03/02 07:41:40;;;;;;;14.60;9.00;;;;;;;6.06;47.00;101356.56;5120226;27;20703;-65
2022/03/02 07:44:08;;;;;;;16.43;8.67;;;;;;;5.92;47.36;101346.03;5120629;27;20243;-65
2022/03/02 07:46:38;;;;;;;21.57;10.20;;;;;;;5.95;47.37;101343.22;5116014;27;20206;-65
2022/03/02 07:49:06;;;;;;;17.43;9.43;;;;;;;5.21;49.15;101343.41;5117802;27;20538;-62
2022/03/02 07:51:35;;;;;;;16.40;9.30;;;;;;;5.70;48.63;101332.53;5115802;27;20245;-61
2022/03/02 07:54:06;;;;;;;15.63;8.77;;;;;;;5.95;47.89;101337.97;5109001;27;20605;-60
2022/03/02 07:56:34;;;;;;;16.27;9.00;;;;;;;6.03;47.32;101338.31;5122286;27;20233;-60
2022/03/02 07:59:07;;;;;;;19.83;9.93;;;;;;;5.90;47.08;101342.66;5118396;27;20216;-64
2022/03/02 08:01:45;;;;;;;19.00;9.73;;;;;;;5.97;47.28;101343.97;5116980;27;20261;-64
2022/03/02 08:04:14;;;;;;;15.60;9.27;;;;;;;6.20;47.07;101345.13;5118740;27;20210;-62
2022/03/02 08:06:42;;;;;;;17.37;9.13;;;;;;;6.22;46.93;101336.19;5118609;27;20487;-64
2022/03/02 08:09:13;;;;;;;15.03;9.00;;;;;;;6.29;46.82;101334.00;5118982;27;20221;-63
2022/03/02 08:11:41;;;;;;;20.27;9.90;;;;;;;6.28;46.98;101338.41;5120191;27;20233;-63
2022/03/02 08:14:09;;;;;;;15.60;8.77;;;;;;;6.33;46.92;101336.31;5115573;27;20237;-64
2022/03/02 08:16:37;;;;;;;18.70;10.10;;;;;;;6.41;46.72;101339.31;5118476;27;20308;-64
2022/03/02 08:19:07;;;;;;;15.33;9.30;;;;;;;6.28;46.65;101341.06;5122200;27;20715;-64
2022/03/02 08:21:36;;;;;;;17.67;8.90;;;;;;;6.36;47.30;101341.41;5118659;27;20210;-64
2022/03/02 08:24:08;;;;;;;16.57;9.57;;;;;;;6.45;46.75;101339.09;5117077;27;20296;-64
2022/03/02 08:26:39;;;;;;;19.10;9.53;;;;;;;6.45;46.79;101333.84;5121022;27;20212;-64
2022/03/02 08:29:09;;;;;;;15.90;9.40;;;;;;;6.50;46.87;101332.59;5115382;27;20209;-65
2022/03/02 08:31:38;;;;;;;13.87;8.43;;;;;;;6.39;46.79;101330.66;5117615;27;20214;-65
2022/03/02 08:34:07;;;;;;;15.83;9.10;;;;;;;6.47;47.00;101331.94;5118203;27;20300;-65
2022/03/02 08:36:35;;;;;;;15.17;8.20;;;;;;;6.46;46.95;101335.53;5116134;27;20225;-64
2022/03/02 08:39:06;;;;;;;19.17;10.70;;;;;;;6.54;47.07;101346.41;5116106;27;20231;-65
2022/03/02 08:41:34;;;;;;;20.10;10.03;;;;;;;6.44;46.93;101340.88;5110076;27;20214;-65
2022/03/02 08:44:04;;;;;;;14.43;8.60;;;;;;;6.60;46.92;101346.00;5111859;27;20270;-65
2022/03/02 08:46:32;;;;;;;14.97;9.33;;;;;;;6.54;46.82;101347.25;5119765;27;20263;-65
2022/03/02 08:49:01;;;;;;;16.10;8.80;;;;;;;6.65;45.91;101341.28;5119277;27;20222;-64
2022/03/02 08:51:32;;;;;;;16.33;9.10;;;;;;;6.61;46.26;101345.06;5116591;27;20250;-65
2022/03/02 08:54:04;;;;;;;19.87;10.57;;;;;;;6.59;46.50;101346.97;5114815;27;20248;-65
2022/03/02 08:56:35;;;;;;;17.27;9.23;;;;;;;6.61;46.37;101339.78;5116408;27;20342;-63
2022/03/02 08:59:06;;;;;;;14.57;8.80;;;;;;;6.60;46.18;101343.34;5116001;27;20308;-65
2022/03/02 09:01:37;;;;;;;19.73;9.03;;;;;;;6.68;46.83;101341.94;5115054;27;20213;-64
2022/03/02 09:04:07;;;;;;;15.30;8.47;;;;;;;6.90;46.10;101341.31;5114115;27;20568;-64
2022/03/02 09:06:36;;;;;;;15.13;9.13;;;;;;;6.65;47.65;101346.56;5117482;27;20233;-64
2022/03/02 09:09:06;;;;;;;19.53;9.03;;;;;;;6.75;46.60;101342.38;5132192;27;20227;-65
2022/03/02 09:11:34;;;;;;;15.20;8.50;;;;;;;6.76;46.56;101344.91;5137041;27;20270;-61
2022/03/02 09:14:02;;;;;;;17.33;8.63;;;;;;;6.98;46.59;101348.72;5140790;27;20275;-63
2022/03/02 09:16:31;;;;;;;17.87;9.13;;;;;;;7.08;46.77;101350.63;5138788;27;20228;-62
2022/03/02 09:18:59;;;;;;;19.57;9.47;;;;;;;7.04;46.41;101354.41;5137942;27;20255;-61
2022/03/02 09:21:27;;;;;;;17.67;8.73;;;;;;;6.93;46.02;101341.13;5142618;27;20213;-61
2022/03/02 09:23:56;;;;;;;17.60;9.30;;;;;;;7.11;46.05;101345.16;5135825;27;20230;-62
2022/03/02 09:26:24;;;;;;;16.93;8.83;;;;;;;7.25;46.09;101346.00;5141251;27;20253;-60
2022/03/02 09:28:52;;;;;;;14.77;9.23;;;;;;;7.48;45.85;101345.22;5140272;27;20548;-63
2022/03/02 09:31:22;;;;;;;17.10;9.70;;;;;;;7.72;45.65;101348.81;5135647;27;20213;-63
2022/03/02 09:33:56;;;;;;;19.17;9.33;;;;;;;7.81;45.50;101340.25;5137898;27;20206;-63
2022/03/02 09:36:26;;;;;;;16.43;9.07;;;;;;;7.76;45.31;101347.63;5133693;27;20226;-64
2022/03/02 09:38:55;;;;;;;16.17;8.73;;;;;;;7.63;45.56;101349.47;5134643;27;20633;-64
2022/03/02 09:41:29;;;;;;;18.40;8.67;;;;;;;7.64;45.94;101339.75;5135076;27;20214;-65
2022/03/02 09:43:59;;;;;;;17.10;9.67;;;;;;;7.70;45.75;101342.78;5135463;27;20234;-67
2022/03/02 09:46:33;;;;;;;13.60;8.63;;;;;;;7.64;45.62;101345.88;5139788;27;20259;-65
2022/03/02 09:49:07;;;;;;;13.97;8.70;;;;;;;7.72;45.58;101347.97;5139317;27;20206;-64
2022/03/02 09:51:36;;;;;;;14.17;9.20;;;;;;;7.67;45.76;101348.28;5138714;27;20264;-64
2022/03/02 09:54:08;;;;;;;14.77;9.03;;;;;;;7.67;45.92;101348.28;5139887;27;20532;-64
2022/03/02 09:56:37;;;;;;;16.00;9.13;;;;;;;7.57;45.77;101348.06;5141088;27;20226;-65
2022/03/02 09:59:07;;;;;;;17.10;8.93;;;;;;;7.69;45.67;101348.16;5139326;27;20298;-64
2022/03/02 10:01:38;;;;;;;19.47;9.73;;;;;;;7.67;45.82;101350.91;5141200;27;20208;-65
2022/03/02 10:04:17;;;;;;;17.93;9.63;;;;;;;7.62;45.68;101345.13;5139688;27;20242;-64
2022/03/02 10:06:46;;;;;;;15.50;8.67;;;;;;;7.48;45.58;101350.50;5134584;27;20211;-64
2022/03/02 10:09:14;;;;;;;18.37;8.70;;;;;;;7.60;44.91;101347.03;5119801;27;20293;-64
2022/03/02 10:11:43;;;;;;;13.93;8.60;;;;;;;7.62;45.12;101345.13;5126899;27;20298;-64
2022/03/02 10:14:12;;;;;;;15.30;9.03;;;;;;;7.57;44.67;101347.22;5118016;27;20318;-64
2022/03/02 10:16:44;;;;;;;16.73;9.17;;;;;;;7.43;45.28;101344.72;5119934;27;20545;-65
2022/03/02 10:19:45;;;;;;;16.70;8.77;;;;;;;7.60;45.06;101341.75;5124093;27;20220;-64
2022/03/02 10:22:33;;;;;;;19.40;9.83;;;;;;;7.66;45.28;101340.47;5120281;27;20211;-64
2022/03/02 10:25:05;;;;;;;21.10;9.10;;;;;;;7.66;44.89;101333.38;5117641;27;20678;-64
2022/03/02 10:27:35;;;;;;;16.17;9.10;;;;;;;7.65;45.10;101323.78;5122378;27;20445;-64
2022/03/02 10:30:07;;;;;;;13.53;8.33;;;;;;;7.75;45.12;101330.09;5111275;27;20218;-65
2022/03/02 10:32:36;;;;;;;15.37;7.97;;;;;;;7.77;44.64;101317.63;5114182;27;20725;-64
2022/03/02 10:35:08;;;;;;;14.17;8.70;;;;;;;7.70;45.16;101326.94;5113505;27;22340;-64
2022/03/02 10:37:41;;;;;;;19.57;8.50;;;;;;;7.77;44.50;101322.06;5123191;27;20228;-62
2022/03/02 10:40:13;;;;;;;16.63;9.23;;;;;;;7.78;44.73;101324.59;5115044;27;20631;-62
2022/03/02 10:42:44;;;;;;;18.33;10.13;;;;;;;7.80;44.42;101322.69;5120788;27;20615;-62
2022/03/02 10:45:18;;;;;;;17.13;9.57;;;;;;;7.77;44.47;101320.28;5120094;27;20198;-63
2022/03/02 10:47:57;;;;;;;15.50;8.87;;;;;;;7.80;44.93;101321.84;5116639;27;20207;-61
2022/03/02 10:50:29;;;;;;;13.73;8.73;;;;;;;7.54;45.26;101321.06;5117827;27;20688;-61
2022/03/02 10:52:59;;;;;;;14.57;8.60;;;;;;;7.58;45.41;101317.25;5121410;27;20235;-62
2022/03/02 10:55:27;;;;;;;15.80;8.93;;;;;;;7.79;45.12;101320.16;5114966;27;20836;-61
2022/03/02 10:57:56;;;;;;;16.40;8.83;;;;;;;7.78;44.82;101314.03;5111927;27;20247;-63
2022/03/02 11:00:25;;;;;;;24.77;9.43;;;;;;;7.86;44.81;101322.25;5119068;27;20218;-63
2022/03/02 11:02:57;;;;;;;20.83;9.00;;;;;;;7.72;44.24;101313.63;5114741;27;20216;-63
2022/03/02 11:05:29;;;;;;;16.57;9.17;;;;;;;7.90;44.52;101312.31;5115559;27;20221;-63
2022/03/02 11:07:58;;;;;;;13.67;8.40;;;;;;;7.76;44.68;101313.31;5128862;27;20569;-61
2022/03/02 11:10:31;;;;;;;14.60;8.17;;;;;;;7.91;44.45;101314.88;5137503;27;20289;-61
2022/03/02 11:13:02;;;;;;;15.10;8.23;;;;;;;8.03;44.07;101312.28;5136625;27;20498;-62
2022/03/02 11:15:45;;;;;;;22.80;10.50;;;;;;;8.18;44.27;101316.47;5136790;27;20212;-63
2022/03/02 11:18:16;;;;;;;24.43;10.47;;;;;;;8.18;44.46;101306.69;5136628;27;20205;-63
2022/03/02 11:20:59;;;;;;;17.23;9.90;;;;;;;8.13;44.37;101308.00;5136197;27;20220;-62
2022/03/02 11:23:27;;;;;;;17.80;9.30;;;;;;;8.02;43.96;101300.00;5136002;27;20331;-63
2022/03/02 11:25:56;;;;;;;15.47;9.43;;;;;;;8.26;43.50;101292.94;5134997;27;20719;-62
2022/03/02 11:28:27;;;;;;;19.93;9.00;;;;;;;8.31;44.00;101293.47;5135872;27;20712;-62
2022/03/02 11:30:56;;;;;;;13.60;8.10;;;;;;;8.46;43.40;101288.84;5141266;27;20244;-64
2022/03/02 11:33:26;;;;;;;14.10;8.83;;;;;;;8.56;43.18;101284.56;5135391;27;20209;-63
2022/03/02 11:35:59;;;;;;;12.73;9.07;;;;;;;8.60;43.01;101278.94;5136375;27;20578;-65
2022/03/02 11:38:30;;;;;;;15.30;9.17;;;;;;;8.39;42.97;101277.88;5141195;27;20592;-64
2022/03/02 11:40:59;;;;;;;16.80;8.87;;;;;;;8.41;43.23;101270.69;5134693;27;20205;-65